createdAt,value
2022-09-27T00:01:25.122Z,4.50
2022-09-27T00:03:55.867Z,4.65
2022-09-27T00:06:27.889Z,4.43
2022-09-27T00:08:55.726Z,4.40
2022-09-27T00:11:28.839Z,4.95
2022-09-27T00:13:57.410Z,4.72
2022-09-27T00:16:25.658Z,4.55
2022-09-27T00:18:53.007Z,4.70
2022-09-27T00:21:20.317Z,4.28
2022-09-27T00:23:47.630Z,4.28
2022-09-27T00:26:15.163Z,5.05
2022-09-27T00:28:43.005Z,4.40
2022-09-27T00:31:31.407Z,4.88
2022-09-27T00:34:00.002Z,4.50
2022-09-27T00:36:28.126Z,4.55
2022-09-27T00:38:55.887Z,4.43
2022-09-27T00:41:32.174Z,4.40
2022-09-27T00:44:03.424Z,4.72
2022-09-27T00:46:34.693Z,4.35
2022-09-27T00:49:09.340Z,4.70
2022-09-27T00:51:38.344Z,4.43
2022-09-27T00:54:06.353Z,4.32
2022-09-27T00:56:34.102Z,4.30
2022-09-27T00:59:24.599Z,4.43
2022-09-27T01:01:52.043Z,4.37
2022-09-27T01:04:25.423Z,4.68
2022-09-27T01:06:52.750Z,4.28
2022-09-27T01:09:21.346Z,4.82
2022-09-27T01:11:48.887Z,4.53
2022-09-27T01:14:34.770Z,4.72
2022-09-27T01:17:04.840Z,4.85
2022-09-27T01:19:50.522Z,4.05
2022-09-27T01:22:20.748Z,4.75
2022-09-27T01:24:59.968Z,4.53
2022-09-27T01:27:30.231Z,4.85
2022-09-27T01:30:00.583Z,4.70
2022-09-27T01:32:36.004Z,4.80
2022-09-27T01:35:35.898Z,5.13
2022-09-27T01:38:03.208Z,4.60
2022-09-27T01:40:36.840Z,4.57
2022-09-27T01:43:18.845Z,4.50
2022-09-27T01:46:18.446Z,4.90
2022-09-27T01:48:48.235Z,4.57
2022-09-27T01:51:18.042Z,4.38
2022-09-27T01:53:47.810Z,5.15
2022-09-27T01:56:17.710Z,4.53
2022-09-27T01:58:51.570Z,4.60
2022-09-27T02:01:19.872Z,4.57
2022-09-27T02:03:49.656Z,4.57
2022-09-27T02:06:20.334Z,4.68
2022-09-27T02:08:50.570Z,5.05
2022-09-27T02:11:17.927Z,4.63
2022-09-27T02:13:47.867Z,4.80
2022-09-27T02:16:18.333Z,4.47
2022-09-27T02:18:51.665Z,4.75
2022-09-27T02:21:20.383Z,4.60
2022-09-27T02:23:59.916Z,4.65
2022-09-27T02:26:43.390Z,4.60
2022-09-27T02:29:12.339Z,5.10
2022-09-27T02:31:39.795Z,4.95
2022-09-27T02:34:19.005Z,5.20
2022-09-27T02:36:46.388Z,5.43
2022-09-27T02:39:13.813Z,5.53
2022-09-27T02:41:41.192Z,5.53
2022-09-27T02:44:10.572Z,5.20
2022-09-27T02:46:40.655Z,5.30
2022-09-27T02:49:26.758Z,5.43
2022-09-27T02:52:13.051Z,4.72
2022-09-27T02:54:52.213Z,5.25
2022-09-27T02:57:22.477Z,5.05
2022-09-27T02:59:52.869Z,5.50
2022-09-27T03:02:33.716Z,5.18
2022-09-27T03:05:06.649Z,5.30
2022-09-27T03:07:34.932Z,5.40
2022-09-27T03:10:02.184Z,5.45
2022-09-27T03:12:29.492Z,5.72
2022-09-27T03:15:00.694Z,5.55
2022-09-27T03:19:55.058Z,5.00
2022-09-27T03:22:22.342Z,5.28
2022-09-27T03:24:49.601Z,5.30
2022-09-27T03:27:16.992Z,5.60
2022-09-27T03:29:44.338Z,5.57
2022-09-27T03:32:11.833Z,5.25
2022-09-27T03:34:39.109Z,5.13
2022-09-27T03:37:06.360Z,6.30
2022-09-27T03:39:33.678Z,5.72
2022-09-27T03:42:00.994Z,5.70
2022-09-27T03:44:28.237Z,5.50
2022-09-27T03:46:55.589Z,5.68
2022-09-27T03:49:22.878Z,5.60
2022-09-27T03:51:50.135Z,5.88
2022-09-27T03:54:17.381Z,5.90
2022-09-27T03:56:44.654Z,5.85
2022-09-27T03:59:11.956Z,6.00
2022-09-27T04:01:39.236Z,5.60
2022-09-27T04:04:11.092Z,6.28
2022-09-27T04:06:38.722Z,5.60
2022-09-27T04:09:06.014Z,6.30
2022-09-27T04:11:33.303Z,6.22
2022-09-27T04:14:00.660Z,6.13
2022-09-27T04:16:27.999Z,5.90
2022-09-27T04:18:55.403Z,6.32
2022-09-27T04:21:22.927Z,6.20
2022-09-27T04:23:50.238Z,6.35
2022-09-27T04:26:17.534Z,6.13
2022-09-27T04:28:45.379Z,6.65
2022-09-27T04:31:12.814Z,7.20
2022-09-27T04:33:40.175Z,5.82
2022-09-27T04:36:26.311Z,5.97
2022-09-27T04:38:57.192Z,6.63
2022-09-27T04:41:25.462Z,6.22
2022-09-27T04:43:58.264Z,6.22
2022-09-27T04:46:26.908Z,5.90
2022-09-27T04:48:54.262Z,6.13
2022-09-27T04:51:23.993Z,5.93
2022-09-27T04:53:51.317Z,6.40
2022-09-27T04:56:18.597Z,6.50
2022-09-27T04:58:45.913Z,6.18
2022-09-27T05:01:13.851Z,6.45
2022-09-27T05:03:42.143Z,7.25
2022-09-27T05:06:09.412Z,7.07
2022-09-27T05:08:36.691Z,7.20
2022-09-27T05:11:03.996Z,7.97
2022-09-27T05:13:31.268Z,7.90
2022-09-27T05:16:03.292Z,7.75
2022-09-27T05:18:30.578Z,8.20
2022-09-27T05:20:59.119Z,8.20
2022-09-27T05:23:27.354Z,8.48
2022-09-27T05:25:56.559Z,8.80
2022-09-27T05:28:24.480Z,8.60
2022-09-27T05:30:51.832Z,8.85
2022-09-27T05:33:19.236Z,8.10
2022-09-27T05:35:52.225Z,9.13
2022-09-27T05:38:19.738Z,8.68
2022-09-27T05:40:50.197Z,9.07
2022-09-27T05:43:18.112Z,9.25
2022-09-27T05:45:45.497Z,9.60
2022-09-27T05:48:14.285Z,9.70
2022-09-27T05:50:41.980Z,9.85
2022-09-27T05:53:10.298Z,10.70
2022-09-27T05:55:37.566Z,10.15
2022-09-27T05:58:06.169Z,10.90
2022-09-27T06:00:33.934Z,13.05
2022-09-27T06:03:02.665Z,11.20
2022-09-27T06:05:30.820Z,11.43
2022-09-27T06:08:02.277Z,11.65
2022-09-27T06:10:30.277Z,11.07
2022-09-27T06:13:05.608Z,12.32
2022-09-27T06:15:33.508Z,11.82
2022-09-27T06:18:09.965Z,11.80
2022-09-27T06:20:37.539Z,12.70
2022-09-27T06:23:14.823Z,12.50
2022-09-27T06:25:42.631Z,12.38
2022-09-27T06:28:10.935Z,12.68
2022-09-27T06:30:42.299Z,12.85
2022-09-27T06:33:13.731Z,12.52
2022-09-27T06:35:42.511Z,13.48
2022-09-27T06:38:11.669Z,13.13
2022-09-27T06:40:39.398Z,12.10
2022-09-27T06:43:09.235Z,12.88
2022-09-27T06:45:36.941Z,11.57
2022-09-27T06:48:04.973Z,11.40
2022-09-27T06:50:34.173Z,10.98
2022-09-27T06:53:01.650Z,9.63
2022-09-27T06:55:29.177Z,9.52
2022-09-27T06:58:15.570Z,8.80
2022-09-27T07:00:43.159Z,8.43
2022-09-27T07:03:11.510Z,8.30
2022-09-27T07:05:39.137Z,8.07
2022-09-27T07:08:06.468Z,7.85
2022-09-27T07:10:35.908Z,8.52
2022-09-27T07:13:08.164Z,7.80
2022-09-27T07:15:38.854Z,7.93
2022-09-27T07:18:06.741Z,7.60
2022-09-27T07:20:37.261Z,8.10
2022-09-27T07:23:05.379Z,7.43
2022-09-27T07:25:33.603Z,6.72
2022-09-27T07:28:04.239Z,6.88
2022-09-27T07:30:34.290Z,6.68
2022-09-27T07:33:02.561Z,6.97
2022-09-27T07:35:30.379Z,5.97
2022-09-27T07:37:59.046Z,6.32
2022-09-27T07:40:26.999Z,5.97
2022-09-27T07:42:57.827Z,6.38
2022-09-27T07:45:25.828Z,5.75
2022-09-27T07:47:53.468Z,6.45
2022-09-27T07:50:21.356Z,6.18
2022-09-27T07:52:51.299Z,5.80
2022-09-27T07:55:19.614Z,5.75
2022-09-27T07:57:55.347Z,5.30
2022-09-27T08:00:29.582Z,5.90
2022-09-27T08:02:56.976Z,5.85
2022-09-27T08:05:24.332Z,5.63
2022-09-27T08:07:56.548Z,5.72
2022-09-27T08:10:25.408Z,5.53
2022-09-27T08:12:52.961Z,5.80
2022-09-27T08:15:20.251Z,5.10
2022-09-27T08:17:47.502Z,5.47
2022-09-27T08:20:15.069Z,5.25
2022-09-27T08:22:43.258Z,5.18
2022-09-27T08:25:10.918Z,4.97
2022-09-27T08:27:38.196Z,4.70
2022-09-27T08:30:05.669Z,4.75
2022-09-27T08:32:32.970Z,5.18
2022-09-27T08:35:00.315Z,4.60
2022-09-27T08:37:27.666Z,4.68
2022-09-27T08:39:54.955Z,4.65
2022-09-27T08:42:28.032Z,4.53
2022-09-27T08:44:55.311Z,4.80
2022-09-27T08:47:31.523Z,4.70
2022-09-27T08:50:17.841Z,4.82
2022-09-27T08:52:48.514Z,4.10
2022-09-27T08:55:22.889Z,4.53
2022-09-27T08:57:53.491Z,4.22
2022-09-27T09:00:21.419Z,4.65
2022-09-27T09:02:49.063Z,4.28
2022-09-27T09:05:20.089Z,4.78
2022-09-27T09:07:47.506Z,4.20
2022-09-27T09:10:45.409Z,4.40
2022-09-27T09:13:31.049Z,4.38
2022-09-27T09:16:03.970Z,4.28
2022-09-27T09:18:41.228Z,4.40
2022-09-27T09:21:11.280Z,4.45
2022-09-27T09:23:41.613Z,4.30
2022-09-27T09:26:15.073Z,4.50
2022-09-27T09:28:57.471Z,4.55
2022-09-27T09:31:44.101Z,4.47
2022-09-27T09:34:16.330Z,4.40
2022-09-27T09:37:04.143Z,4.60
2022-09-27T09:39:41.669Z,4.20
2022-09-27T09:42:15.054Z,4.43
2022-09-27T09:44:42.314Z,4.70
2022-09-27T09:47:26.522Z,4.80
2022-09-27T09:49:55.286Z,4.40
2022-09-27T09:52:24.516Z,4.63
2022-09-27T09:54:54.450Z,5.07
2022-09-27T09:57:25.149Z,4.60
2022-09-27T09:59:56.006Z,4.85
2022-09-27T10:04:50.577Z,4.75
2022-09-27T10:07:20.669Z,4.80
2022-09-27T10:09:47.948Z,4.88
2022-09-27T10:12:15.305Z,5.32
2022-09-27T10:14:43.132Z,4.75
2022-09-27T10:17:12.288Z,5.03
2022-09-27T10:19:39.925Z,4.85
2022-09-27T10:22:13.090Z,4.55
2022-09-27T10:24:56.287Z,4.90
2022-09-27T10:27:24.137Z,5.28
2022-09-27T10:29:57.331Z,5.18
2022-09-27T10:32:33.146Z,4.63
2022-09-27T10:35:23.424Z,5.10
2022-09-27T10:37:52.703Z,4.72
2022-09-27T10:40:27.929Z,4.47
2022-09-27T10:42:55.288Z,4.70
2022-09-27T10:45:32.849Z,4.88
2022-09-27T10:48:01.762Z,5.40
2022-09-27T10:50:52.999Z,4.85
2022-09-27T10:53:23.330Z,5.00
2022-09-27T10:55:51.809Z,5.28
2022-09-27T10:58:20.758Z,5.07
2022-09-27T11:00:58.958Z,5.57
2022-09-27T11:03:29.021Z,5.30
2022-09-27T11:05:56.863Z,5.13
2022-09-27T11:08:27.299Z,5.22
2022-09-27T11:11:13.237Z,5.25
2022-09-27T11:13:40.989Z,5.10
2022-09-27T11:16:28.994Z,5.50
2022-09-27T11:19:11.938Z,4.68
2022-09-27T11:21:45.944Z,5.00
2022-09-27T11:24:22.974Z,5.20
2022-09-27T11:26:53.080Z,5.20
2022-09-27T11:29:39.180Z,5.25
2022-09-27T11:32:14.480Z,5.50
2022-09-27T11:35:00.075Z,5.82
2022-09-27T11:37:27.378Z,5.60
2022-09-27T11:39:57.446Z,5.57
2022-09-27T11:42:33.985Z,5.53
2022-09-27T11:45:32.020Z,5.88
2022-09-27T11:47:57.236Z,5.60
2022-09-27T11:50:40.623Z,5.90
2022-09-27T11:53:16.742Z,6.20
2022-09-27T11:55:53.002Z,6.95
2022-09-27T11:58:20.235Z,7.18
2022-09-27T12:01:08.938Z,7.60
2022-09-27T12:03:54.944Z,7.20
2022-09-27T12:06:32.269Z,7.68
2022-09-27T12:09:03.471Z,7.80
2022-09-27T12:11:35.774Z,7.75
2022-09-27T12:14:03.073Z,9.07
2022-09-27T12:16:31.652Z,9.10
2022-09-27T12:19:00.374Z,8.57
2022-09-27T12:21:30.751Z,8.30
2022-09-27T12:23:58.482Z,8.50
2022-09-27T12:26:45.962Z,8.18
2022-09-27T12:29:18.519Z,8.57
2022-09-27T12:31:57.026Z,8.32
2022-09-27T12:34:24.371Z,8.27
2022-09-27T12:37:00.222Z,8.63
2022-09-27T12:39:55.385Z,8.10
2022-09-27T12:42:25.911Z,8.88
2022-09-27T12:44:53.900Z,8.32
2022-09-27T12:47:21.548Z,8.23
2022-09-27T12:50:04.382Z,8.18
2022-09-27T12:52:34.507Z,8.48
2022-09-27T12:55:08.491Z,8.70
2022-09-27T12:57:35.695Z,8.43
2022-09-27T13:00:12.946Z,9.00
2022-09-27T13:03:14.153Z,8.15
2022-09-27T13:05:39.639Z,8.27
2022-09-27T13:08:09.950Z,8.07
2022-09-27T13:10:52.964Z,8.40
2022-09-27T13:13:22.003Z,9.07
2022-09-27T13:15:50.241Z,8.75
2022-09-27T13:18:38.851Z,9.00
2022-09-27T13:21:07.211Z,8.88
2022-09-27T13:23:35.835Z,9.40
2022-09-27T13:26:04.756Z,8.77
2022-09-27T13:28:32.030Z,8.85
2022-09-27T13:31:02.320Z,8.70
2022-09-27T13:33:29.622Z,8.60
2022-09-27T13:36:23.532Z,9.13
2022-09-27T13:38:55.233Z,9.13
2022-09-27T13:41:23.183Z,9.35
2022-09-27T13:44:05.271Z,8.57
2022-09-27T13:46:34.309Z,8.40
2022-09-27T13:49:15.414Z,9.13
2022-09-27T13:54:30.154Z,7.97
2022-09-27T13:56:57.671Z,8.45
2022-09-27T13:59:34.179Z,8.02
2022-09-27T14:02:20.376Z,8.95
2022-09-27T14:04:51.621Z,8.13
2022-09-27T14:09:52.834Z,8.45
2022-09-27T14:12:21.622Z,7.95
2022-09-27T14:14:50.874Z,7.47
2022-09-27T14:17:18.194Z,7.78
2022-09-27T14:19:46.286Z,8.13
2022-09-27T14:22:15.073Z,7.80
2022-09-27T14:24:42.693Z,7.80
2022-09-27T14:27:18.138Z,8.48
2022-09-27T14:29:48.424Z,8.00
2022-09-27T14:32:17.736Z,8.10
2022-09-27T14:34:45.306Z,8.18
2022-09-27T14:37:26.353Z,7.93
2022-09-27T14:39:54.686Z,8.48
2022-09-27T14:42:22.790Z,8.50
2022-09-27T14:44:50.329Z,8.30
2022-09-27T14:47:21.257Z,8.57
2022-09-27T14:49:57.765Z,7.95
2022-09-27T14:52:31.449Z,8.30
2022-09-27T14:55:03.232Z,8.20
2022-09-27T14:57:34.602Z,8.32
2022-09-27T15:00:32.361Z,8.80
2022-09-27T15:03:03.356Z,9.23
2022-09-27T15:05:32.725Z,9.07
2022-09-27T15:08:01.502Z,8.52
2022-09-27T15:10:33.695Z,8.18
2022-09-27T15:13:03.527Z,7.97
2022-09-27T15:15:39.263Z,8.80
2022-09-27T15:18:41.987Z,7.70
2022-09-27T15:21:10.442Z,7.68
2022-09-27T15:23:39.147Z,7.40
2022-09-27T15:26:12.614Z,7.50
2022-09-27T15:28:43.361Z,6.90
2022-09-27T15:31:10.793Z,7.13
2022-09-27T15:33:38.374Z,7.38
2022-09-27T15:36:06.982Z,8.30
2022-09-27T15:38:35.917Z,7.50
2022-09-27T15:41:04.161Z,8.35
2022-09-27T15:43:42.415Z,7.72
2022-09-27T15:46:28.278Z,8.80
2022-09-27T15:49:14.096Z,8.43
2022-09-27T15:51:42.684Z,9.00
2022-09-27T15:54:09.907Z,8.40
2022-09-27T15:56:37.500Z,9.35
2022-09-27T15:59:04.774Z,8.20
2022-09-27T16:01:32.044Z,8.80
2022-09-27T16:04:02.474Z,8.23
2022-09-27T16:06:30.748Z,7.93
2022-09-27T16:08:58.072Z,8.48
2022-09-27T16:11:25.364Z,7.45
2022-09-27T16:13:54.892Z,7.95
2022-09-27T16:16:22.901Z,7.97
2022-09-27T16:18:50.311Z,8.40
2022-09-27T16:21:18.233Z,7.90
2022-09-27T16:23:45.458Z,8.32
2022-09-27T16:26:13.456Z,8.05
2022-09-27T16:28:40.717Z,7.88
2022-09-27T16:31:08.202Z,9.25
2022-09-27T16:33:36.883Z,8.50
2022-09-27T16:36:16.213Z,8.77
2022-09-27T16:38:43.897Z,9.13
2022-09-27T16:41:11.150Z,9.07
2022-09-27T16:43:38.535Z,9.25
2022-09-27T16:46:11.858Z,9.02
2022-09-27T16:48:39.554Z,9.43
2022-09-27T16:51:33.652Z,9.95
2022-09-27T16:54:01.356Z,9.80
2022-09-27T16:56:36.331Z,9.45
2022-09-27T16:59:07.378Z,10.68
2022-09-27T17:01:35.786Z,10.82
2022-09-27T17:04:03.523Z,10.70
2022-09-27T17:06:33.197Z,9.55
2022-09-27T17:09:04.624Z,9.35
2022-09-27T17:11:31.883Z,9.70
2022-09-27T17:13:59.231Z,10.40
2022-09-27T17:16:28.337Z,9.70
2022-09-27T17:18:56.007Z,9.63
2022-09-27T17:21:23.372Z,9.90
2022-09-27T17:23:50.753Z,8.90
2022-09-27T17:26:19.275Z,8.57
2022-09-27T17:28:46.889Z,8.43
2022-09-27T17:31:15.783Z,7.95
2022-09-27T17:33:45.251Z,8.05
2022-09-27T17:36:14.489Z,8.13
2022-09-27T17:38:42.399Z,8.27
2022-09-27T17:41:11.035Z,8.65
2022-09-27T17:43:43.732Z,7.40
2022-09-27T17:46:11.313Z,8.32
2022-09-27T17:48:57.153Z,7.65
2022-09-27T17:51:24.470Z,6.90
2022-09-27T17:53:52.586Z,6.68
2022-09-27T17:56:19.969Z,7.22
2022-09-27T17:58:53.925Z,6.82
2022-09-27T18:01:22.603Z,7.10
2022-09-27T18:03:53.115Z,6.38
2022-09-27T18:06:20.392Z,6.53
2022-09-27T18:08:47.692Z,6.80
2022-09-27T18:11:16.160Z,5.93
2022-09-27T18:13:44.518Z,5.82
2022-09-27T18:16:13.308Z,5.70
2022-09-27T18:18:41.846Z,5.97
2022-09-27T18:21:11.705Z,5.90
2022-09-27T18:23:39.382Z,5.78
2022-09-27T18:26:09.890Z,6.40
2022-09-27T18:28:37.840Z,6.35
2022-09-27T18:31:10.421Z,6.97
2022-09-27T18:33:40.685Z,6.80
2022-09-27T18:36:11.079Z,9.97
2022-09-27T18:38:38.335Z,6.18
2022-09-27T18:41:09.734Z,6.15
2022-09-27T18:43:38.981Z,5.50
2022-09-27T18:46:30.814Z,6.03
2022-09-27T18:48:54.752Z,5.47
2022-09-27T18:51:26.909Z,5.53
2022-09-27T18:53:58.461Z,5.32
2022-09-27T18:56:26.447Z,5.65
2022-09-27T18:58:53.915Z,5.57
2022-09-27T19:01:22.175Z,5.68
2022-09-27T19:03:49.632Z,5.35
2022-09-27T19:06:18.811Z,5.50
2022-09-27T19:08:46.186Z,5.40
2022-09-27T19:11:18.026Z,5.38
2022-09-27T19:13:51.104Z,4.90
2022-09-27T19:16:21.025Z,5.20
2022-09-27T19:18:48.888Z,4.82
2022-09-27T19:21:26.578Z,5.22
2022-09-27T19:23:54.310Z,5.47
2022-09-27T19:26:23.056Z,4.65
2022-09-27T19:28:50.738Z,4.78
2022-09-27T19:31:22.301Z,4.55
2022-09-27T19:33:50.039Z,4.32
2022-09-27T19:36:18.138Z,4.55
2022-09-27T19:38:45.750Z,4.53
2022-09-27T19:41:14.095Z,4.35
2022-09-27T19:43:41.950Z,4.32
2022-09-27T19:46:15.289Z,4.43
2022-09-27T19:48:43.169Z,4.50
2022-09-27T19:51:14.281Z,4.50
2022-09-27T19:56:09.698Z,4.43
2022-09-27T19:58:37.692Z,4.85
2022-09-27T20:01:06.564Z,5.40
2022-09-27T20:03:34.513Z,5.32
2022-09-27T20:06:02.077Z,5.15
2022-09-27T20:08:30.168Z,5.00
2022-09-27T20:11:02.445Z,5.03
2022-09-27T20:13:33.022Z,4.75
2022-09-27T20:16:07.429Z,4.63
2022-09-27T20:18:35.500Z,4.07
2022-09-27T20:21:05.646Z,4.25
2022-09-27T20:23:33.917Z,4.20
2022-09-27T20:26:05.971Z,4.30
2022-09-27T20:28:33.260Z,5.00
2022-09-27T20:31:03.787Z,4.60
2022-09-27T20:33:49.791Z,4.85
2022-09-27T20:36:21.250Z,4.90
2022-09-27T20:38:49.688Z,4.18
2022-09-27T20:41:18.216Z,4.20
2022-09-27T20:43:45.739Z,4.20
2022-09-27T20:46:16.658Z,4.13
2022-09-27T20:48:44.060Z,5.18
2022-09-27T20:51:14.309Z,4.25
2022-09-27T20:53:42.366Z,3.93
2022-09-27T20:56:23.642Z,4.50
2022-09-27T21:01:19.052Z,3.60
2022-09-27T21:03:46.884Z,3.60
2022-09-27T21:06:16.169Z,3.65
2022-09-27T21:08:43.561Z,3.50
2022-09-27T21:11:12.370Z,3.70
2022-09-27T21:13:40.449Z,3.58
2022-09-27T21:16:09.343Z,3.40
2022-09-27T21:18:37.147Z,3.95
2022-09-27T21:21:06.085Z,3.85
2022-09-27T21:23:33.909Z,3.60
2022-09-27T21:26:11.398Z,3.67
2022-09-27T21:28:40.165Z,3.47
2022-09-27T21:31:11.791Z,3.40
2022-09-27T21:33:39.570Z,3.35
2022-09-27T21:36:08.511Z,3.70
2022-09-27T21:38:36.109Z,3.33
2022-09-27T21:41:04.922Z,3.00
2022-09-27T21:43:33.589Z,3.13
2022-09-27T21:46:05.399Z,3.30
2022-09-27T21:48:33.190Z,3.05
2022-09-27T21:51:07.588Z,3.42
2022-09-27T21:53:35.388Z,3.40
2022-09-27T21:56:03.511Z,3.20
2022-09-27T21:58:33.381Z,2.60
2022-09-27T22:01:06.401Z,3.13
2022-09-27T22:03:37.313Z,3.00
2022-09-27T22:06:05.594Z,3.00
2022-09-27T22:08:33.438Z,2.80
2022-09-27T22:11:01.035Z,3.27
2022-09-27T22:13:30.102Z,2.80
2022-09-27T22:15:57.437Z,3.03
2022-09-27T22:18:24.825Z,2.78
2022-09-27T22:20:52.109Z,2.65
2022-09-27T22:23:19.406Z,3.13
2022-09-27T22:25:46.652Z,2.70
2022-09-27T22:28:13.874Z,2.70
2022-09-27T22:30:41.109Z,2.35
2022-09-27T22:33:08.435Z,3.00
2022-09-27T22:35:35.724Z,3.58
2022-09-27T22:38:02.977Z,2.70
2022-09-27T22:40:30.571Z,2.53
2022-09-27T22:42:57.796Z,2.92
2022-09-27T22:45:26.330Z,2.60
2022-09-27T22:47:53.620Z,2.78
2022-09-27T22:50:20.850Z,2.60
2022-09-27T22:52:48.106Z,2.65
2022-09-27T22:55:15.373Z,2.75
2022-09-27T22:57:43.365Z,2.70
2022-09-27T23:00:11.022Z,2.58
2022-09-27T23:02:38.370Z,2.60
2022-09-27T23:05:05.842Z,2.55
2022-09-27T23:07:33.080Z,2.50
2022-09-27T23:10:00.343Z,2.25
2022-09-27T23:12:27.590Z,2.67
2022-09-27T23:14:54.869Z,2.65
2022-09-27T23:17:23.305Z,2.55
2022-09-27T23:19:50.550Z,2.30
2022-09-27T23:22:17.863Z,2.72
2022-09-27T23:24:45.114Z,2.53
2022-09-27T23:27:30.907Z,2.60
2022-09-27T23:29:58.182Z,2.88
2022-09-27T23:32:28.568Z,2.40
2022-09-27T23:34:58.944Z,2.67
2022-09-27T23:37:26.214Z,2.60
2022-09-27T23:39:53.429Z,2.72
2022-09-27T23:42:21.362Z,2.70
2022-09-27T23:44:48.566Z,2.60
2022-09-27T23:47:15.915Z,2.35
2022-09-27T23:49:43.215Z,2.45
2022-09-27T23:52:10.513Z,2.25
2022-09-27T23:54:38.666Z,2.70
2022-09-27T23:57:06.089Z,2.60
2022-09-27T23:59:33.305Z,2.67
